Time;durP1;ratioP1;P1;durP2;ratioP2;P2;SDS_P1;SDS_P2;PMS_P1;PMS_P2;Temp;Humidity;BMP_temperature;BMP_pressure;BME280_temperature;BME280_humidity;BME280_pressure;Samples;Min_cycle;Max_cycle;Signal;HPM_P1;HPM_P2
2023/09/13 00:01:41;;;;;;;0.40;0.40;;;23.70;74.10;;;;;;4965505;28;20034;-76
2023/09/13 00:04:07;;;;;;;0.50;0.50;;;23.70;74.10;;;;;;4965342;28;20126;-76
2023/09/13 00:06:32;;;;;;;0.50;0.40;;;23.70;74.20;;;;;;4967099;28;20050;-76
2023/09/13 00:08:58;;;;;;;0.40;0.40;;;23.70;74.10;;;;;;4963731;28;20627;-76
2023/09/13 00:11:24;;;;;;;0.60;0.60;;;23.70;74.10;;;;;;4964607;28;20070;-76
2023/09/13 00:13:49;;;;;;;0.90;0.60;;;23.70;74.20;;;;;;4967786;28;20460;-76
2023/09/13 00:16:15;;;;;;;0.40;0.40;;;23.70;74.20;;;;;;4964672;28;20109;-76
2023/09/13 00:18:40;;;;;;;0.40;0.40;;;23.70;74.10;;;;;;4964877;28;20587;-76
2023/09/13 00:21:08;;;;;;;0.40;0.40;;;23.70;74.10;;;;;;4963208;28;20043;-76
2023/09/13 00:23:34;;;;;;;0.43;0.40;;;23.70;74.20;;;;;;4965978;28;20043;-76
2023/09/13 00:25:59;;;;;;;0.60;0.60;;;23.70;74.00;;;;;;4961231;28;20502;-76
2023/09/13 00:28:25;;;;;;;0.60;0.60;;;23.70;74.20;;;;;;4967324;28;20043;-76
2023/09/13 00:30:50;;;;;;;0.52;0.50;;;23.70;74.20;;;;;;4966027;28;20035;-76
2023/09/13 00:33:16;;;;;;;0.60;0.55;;;23.70;74.20;;;;;;4966966;28;20061;-76
2023/09/13 00:35:42;;;;;;;0.47;0.47;;;23.70;74.10;;;;;;4965121;28;20178;-76
2023/09/13 00:38:07;;;;;;;0.43;0.43;;;23.70;74.10;;;;;;4967452;28;20039;-76
2023/09/13 00:40:33;;;;;;;0.57;0.57;;;23.70;74.10;;;;;;4966936;28;20046;-76
2023/09/13 00:42:59;;;;;;;0.40;0.40;;;23.60;74.80;;;;;;4966283;28;20105;-76
2023/09/13 00:45:25;;;;;;;0.50;0.50;;;23.70;74.10;;;;;;4949048;28;20127;-76
2023/09/13 00:47:50;;;;;;;0.40;0.40;;;23.60;74.00;;;;;;4963075;28;20053;-76
2023/09/13 00:50:16;;;;;;;0.40;0.40;;;23.60;74.00;;;;;;4965259;28;20030;-76
2023/09/13 00:52:42;;;;;;;0.40;0.40;;;23.70;75.00;;;;;;4966630;28;20424;-76
2023/09/13 00:55:09;;;;;;;0.45;0.45;;;23.70;74.20;;;;;;4962832;28;20039;-76
2023/09/13 00:57:34;;;;;;;0.40;0.38;;;23.60;74.10;;;;;;4980076;28;20089;-76
2023/09/13 01:00:06;;;;;;;0.45;0.45;;;23.70;74.20;;;;;;4965730;28;20043;-76
2023/09/13 01:02:31;;;;;;;0.50;0.50;;;23.70;74.30;;;;;;4963927;28;20050;-76
2023/09/13 01:04:57;;;;;;;0.45;0.45;;;23.60;74.00;;;;;;4965405;28;20417;-76
2023/09/13 01:07:23;;;;;;;0.40;0.40;;;23.60;74.10;;;;;;4964173;28;20062;-76
2023/09/13 01:09:48;;;;;;;0.60;0.60;;;23.60;74.10;;;;;;4965844;28;20408;-76
2023/09/13 01:12:14;;;;;;;0.52;0.50;;;23.60;74.10;;;;;;4963089;28;20058;-76
2023/09/13 01:14:39;;;;;;;0.60;0.50;;;23.60;74.10;;;;;;4948561;28;20047;-76
2023/09/13 01:17:14;;;;;;;0.50;0.50;;;23.60;74.10;;;;;;4965922;28;20113;-76
2023/09/13 01:20:01;;;;;;;0.40;0.40;;;23.60;74.20;;;;;;4967249;28;20082;-76
2023/09/13 01:23:03;;;;;;;0.50;0.50;;;23.70;74.30;;;;;;4983723;28;20039;-77
2023/09/13 01:26:07;;;;;;;0.40;0.40;;;23.60;74.20;;;;;;4966936;28;20071;-76
2023/09/13 01:28:38;;;;;;;0.60;0.60;;;23.60;74.30;;;;;;4946248;29;20039;-76
2023/09/13 01:31:05;;;;;;;0.50;0.50;;;23.60;74.30;;;;;;4943842;28;20150;-76
2023/09/13 01:33:31;;;;;;;0.45;0.45;;;23.60;74.40;;;;;;4932028;29;20057;-76
2023/09/13 01:35:57;;;;;;;0.40;0.40;;;23.60;74.30;;;;;;4946101;29;20039;-76
2023/09/13 01:38:22;;;;;;;0.40;0.40;;;23.60;74.40;;;;;;4948281;29;20048;-76
2023/09/13 01:40:48;;;;;;;0.40;0.40;;;23.60;75.00;;;;;;4947519;28;20079;-76
2023/09/13 01:43:14;;;;;;;0.40;0.40;;;23.60;74.20;;;;;;4930043;29;20059;-76
2023/09/13 01:45:39;;;;;;;0.28;0.28;;;23.60;74.20;;;;;;4932273;29;20433;-76
2023/09/13 01:48:05;;;;;;;0.30;0.30;;;23.60;74.30;;;;;;4944379;28;20063;-76
2023/09/13 01:50:31;;;;;;;0.30;0.30;;;23.60;74.30;;;;;;4931194;29;20035;-76
2023/09/13 01:52:56;;;;;;;0.38;0.38;;;23.60;74.20;;;;;;4947929;28;20039;-76
2023/09/13 01:55:22;;;;;;;0.40;0.40;;;23.60;74.20;;;;;;4915365;29;20831;-76
2023/09/13 01:57:48;;;;;;;0.50;0.50;;;23.60;74.20;;;;;;4946805;28;20641;-76
2023/09/13 02:00:14;;;;;;;0.47;0.47;;;23.60;74.20;;;;;;4944247;28;20054;-76
2023/09/13 02:02:39;;;;;;;0.50;0.50;;;23.60;74.10;;;;;;4947635;28;20051;-76
2023/09/13 02:05:05;;;;;;;0.47;0.47;;;23.60;74.20;;;;;;4957945;28;20452;-76
2023/09/13 02:07:32;;;;;;;0.47;0.47;;;23.60;74.10;;;;;;4966710;28;20557;-76
2023/09/13 02:09:57;;;;;;;0.40;0.40;;;23.60;74.20;;;;;;4968452;28;20035;-76
2023/09/13 02:12:23;;;;;;;0.55;0.55;;;23.60;74.30;;;;;;4967411;28;20043;-76
2023/09/13 02:14:48;;;;;;;0.35;0.35;;;23.60;74.30;;;;;;4965694;28;20053;-76
2023/09/13 02:17:14;;;;;;;0.35;0.35;;;23.60;74.30;;;;;;4968716;28;20066;-76
2023/09/13 02:19:40;;;;;;;0.30;0.30;;;23.60;74.20;;;;;;4967781;28;20051;-76
2023/09/13 02:22:05;;;;;;;0.40;0.40;;;23.60;74.20;;;;;;4965052;28;20118;-76
2023/09/13 02:24:32;;;;;;;0.40;0.40;;;23.60;74.20;;;;;;4969382;28;20038;-76
2023/09/13 02:26:58;;;;;;;0.40;0.40;;;23.60;74.20;;;;;;4963839;28;20516;-76
2023/09/13 02:29:24;;;;;;;0.25;0.25;;;23.60;74.00;;;;;;4965585;28;20046;-76
2023/09/13 02:31:49;;;;;;;0.50;0.50;;;23.60;74.00;;;;;;4965869;28;20609;-76
2023/09/13 02:34:15;;;;;;;0.70;0.70;;;23.60;74.80;;;;;;4967820;28;20046;-76
2023/09/13 02:36:40;;;;;;;0.40;0.40;;;23.60;74.70;;;;;;4966685;28;20689;-76
2023/09/13 02:39:29;;;;;;;0.30;0.30;;;23.60;73.90;;;;;;4966018;28;20046;-76
2023/09/13 02:41:54;;;;;;;0.65;0.50;;;23.60;74.00;;;;;;4965642;28;20105;-76
2023/09/13 02:44:20;;;;;;;0.40;0.40;;;23.60;74.00;;;;;;4965927;28;20500;-76
2023/09/13 02:46:45;;;;;;;0.45;0.45;;;23.60;74.00;;;;;;4963737;28;20408;-76
2023/09/13 02:49:11;;;;;;;0.40;0.40;;;23.60;74.00;;;;;;4967753;28;20067;-76
2023/09/13 02:51:37;;;;;;;0.52;0.40;;;23.60;74.10;;;;;;4964683;28;20046;-76
2023/09/13 02:54:04;;;;;;;0.38;0.30;;;23.60;74.00;;;;;;4962185;28;20039;-76
2023/09/13 02:56:30;;;;;;;0.38;0.38;;;23.60;74.00;;;;;;4964500;28;20051;-76
2023/09/13 02:58:55;;;;;;;0.50;0.50;;;23.60;74.00;;;;;;4967406;28;20041;-76
2023/09/13 03:01:22;;;;;;;0.30;0.30;;;23.60;74.00;;;;;;4967222;28;20093;-76
2023/09/13 03:03:48;;;;;;;0.50;0.35;;;23.60;74.00;;;;;;4965087;28;20027;-76
2023/09/13 03:06:14;;;;;;;0.40;0.40;;;23.60;74.00;;;;;;4963613;28;20055;-76
2023/09/13 03:08:39;;;;;;;0.20;0.20;;;23.50;74.00;;;;;;4965853;28;20055;-76
2023/09/13 03:11:10;;;;;;;0.30;0.30;;;23.60;73.90;;;;;;4968897;28;20046;-76
2023/09/13 03:13:35;;;;;;;0.30;0.30;;;23.60;73.90;;;;;;4967050;28;20042;-76
2023/09/13 03:16:01;;;;;;;0.40;0.32;;;23.60;73.90;;;;;;4980742;28;20082;-76
2023/09/13 03:18:27;;;;;;;0.40;0.40;;;23.60;73.80;;;;;;4969353;28;20043;-76
2023/09/13 03:20:52;;;;;;;0.40;0.40;;;23.60;73.90;;;;;;4968793;28;20055;-76
2023/09/13 03:23:18;;;;;;;0.52;0.50;;;23.60;73.90;;;;;;4958514;28;20055;-76
2023/09/13 03:25:43;;;;;;;0.40;0.40;;;23.60;73.90;;;;;;4964843;28;20528;-76
2023/09/13 03:28:09;;;;;;;0.30;0.30;;;23.60;74.00;;;;;;4962891;28;20406;-76
2023/09/13 03:30:34;;;;;;;0.40;0.40;;;23.50;74.00;;;;;;4966040;28;20046;-76
2023/09/13 03:33:00;;;;;;;0.30;0.30;;;23.50;74.00;;;;;;4964351;28;20078;-76
2023/09/13 03:35:26;;;;;;;0.32;0.32;;;23.50;74.00;;;;;;4968231;28;20101;-76
2023/09/13 03:37:51;;;;;;;0.30;0.30;;;23.50;74.00;;;;;;4967347;28;20046;-76
2023/09/13 03:40:17;;;;;;;0.40;0.40;;;23.50;73.90;;;;;;4967510;28;20047;-76
2023/09/13 03:42:42;;;;;;;0.20;0.20;;;23.60;74.00;;;;;;4965587;28;20579;-76
2023/09/13 03:45:08;;;;;;;0.30;0.30;;;23.50;73.90;;;;;;4963652;28;20086;-76
2023/09/13 03:47:34;;;;;;;0.30;0.30;;;23.50;73.90;;;;;;4964290;28;20047;-76
2023/09/13 03:49:59;;;;;;;0.40;0.40;;;23.50;73.90;;;;;;4968219;28;20492;-76
2023/09/13 03:52:25;;;;;;;0.30;0.30;;;23.50;74.00;;;;;;4964624;28;20500;-76
2023/09/13 03:54:50;;;;;;;0.40;0.40;;;23.50;73.90;;;;;;4966139;28;20050;-76
2023/09/13 03:57:16;;;;;;;0.35;0.30;;;23.50;74.00;;;;;;4966519;28;20076;-76
2023/09/13 03:59:42;;;;;;;0.52;0.40;;;23.50;74.00;;;;;;4967934;28;20046;-76
2023/09/13 04:02:07;;;;;;;0.40;0.40;;;23.50;73.90;;;;;;4962516;28;20482;-76
2023/09/13 04:04:33;;;;;;;0.40;0.40;;;23.50;73.80;;;;;;4965061;28;20066;-76
2023/09/13 04:06:58;;;;;;;0.20;0.20;;;23.50;73.90;;;;;;4965334;28;20050;-76
2023/09/13 04:09:24;;;;;;;0.20;0.20;;;23.50;73.90;;;;;;4965138;28;20122;-76
2023/09/13 04:11:49;;;;;;;0.40;0.40;;;23.40;73.90;;;;;;4966950;28;20505;-76
2023/09/13 04:14:15;;;;;;;0.38;0.38;;;23.50;73.90;;;;;;4966326;28;20077;-76
2023/09/13 04:16:40;;;;;;;0.90;0.40;;;23.50;73.90;;;;;;4962916;28;20035;-76
2023/09/13 04:19:06;;;;;;;0.43;0.30;;;23.50;73.90;;;;;;4964632;28;20129;-76
2023/09/13 04:21:31;;;;;;;0.30;0.30;;;23.50;73.90;;;;;;4967299;28;20058;-76
2023/09/13 04:23:58;;;;;;;0.40;0.40;;;23.40;74.60;;;;;;4965906;28;20042;-77
2023/09/13 04:26:24;;;;;;;0.40;0.30;;;23.50;74.50;;;;;;4619054;28;10000675;-77
2023/09/13 04:28:49;;;;;;;0.40;0.40;;;23.50;73.80;;;;;;4963494;28;20039;-77
2023/09/13 04:31:15;;;;;;;0.30;0.30;;;23.50;73.90;;;;;;4962669;28;20043;-77
2023/09/13 04:33:54;;;;;;;0.25;0.25;;;23.50;73.90;;;;;;4962331;28;20038;-77
2023/09/13 04:36:19;;;;;;;0.20;0.20;;;23.50;73.80;;;;;;4962412;28;20063;-77
2023/09/13 04:38:46;;;;;;;0.40;0.40;;;23.50;73.70;;;;;;4963278;28;20071;-77
2023/09/13 04:41:13;;;;;;;0.30;0.30;;;23.50;73.90;;;;;;4960101;28;20089;-77
2023/09/13 04:43:39;;;;;;;0.40;0.40;;;23.50;73.80;;;;;;4943049;28;20062;-77
2023/09/13 04:46:04;;;;;;;0.38;0.38;;;23.50;73.90;;;;;;4961155;28;20047;-77
2023/09/13 04:48:30;;;;;;;0.35;0.30;;;23.50;73.80;;;;;;4958764;28;20058;-77
2023/09/13 04:50:55;;;;;;;0.30;0.30;;;23.50;73.80;;;;;;4958503;28;20038;-77
2023/09/13 04:53:22;;;;;;;0.40;0.40;;;23.50;73.70;;;;;;4959747;28;20456;-75
2023/09/13 04:55:47;;;;;;;0.30;0.30;;;23.50;73.70;;;;;;4966030;28;20540;-75
2023/09/13 04:58:13;;;;;;;0.20;0.15;;;23.50;73.90;;;;;;4961781;28;20050;-75
2023/09/13 05:00:38;;;;;;;0.30;0.30;;;23.50;73.80;;;;;;4960927;28;20203;-75
2023/09/13 05:03:04;;;;;;;1.63;0.30;;;23.50;74.10;;;;;;4962442;28;20050;-75
2023/09/13 05:05:30;;;;;;;0.30;0.30;;;23.50;74.00;;;;;;4964959;28;20054;-75
2023/09/13 05:07:55;;;;;;;0.30;0.30;;;23.50;74.00;;;;;;4965836;28;20058;-75
2023/09/13 05:10:21;;;;;;;0.20;0.20;;;23.50;73.90;;;;;;4963823;28;20042;-76
2023/09/13 05:12:49;;;;;;;0.28;0.28;;;23.50;74.00;;;;;;4960331;28;20050;-75
2023/09/13 05:15:15;;;;;;;0.50;0.32;;;23.50;74.10;;;;;;4958572;28;20127;-76
2023/09/13 05:17:41;;;;;;;0.43;0.43;;;23.50;73.90;;;;;;4943996;28;20066;-76
2023/09/13 05:20:07;;;;;;;0.20;0.20;;;23.50;74.00;;;;;;4959387;28;20047;-75
2023/09/13 05:22:33;;;;;;;0.30;0.30;;;23.50;73.90;;;;;;4965653;28;20046;-76
2023/09/13 05:25:00;;;;;;;0.40;0.40;;;23.50;73.80;;;;;;4961602;28;20042;-76
2023/09/13 05:27:26;;;;;;;0.20;0.20;;;23.50;73.80;;;;;;4965510;28;20069;-76
2023/09/13 05:29:52;;;;;;;0.40;0.30;;;23.50;73.70;;;;;;4962298;28;20043;-76
2023/09/13 05:32:18;;;;;;;0.30;0.30;;;23.50;74.00;;;;;;4963386;28;20113;-76
2023/09/13 05:34:45;;;;;;;0.30;0.30;;;23.50;73.70;;;;;;4976936;28;20051;-75
2023/09/13 05:37:10;;;;;;;0.22;0.22;;;23.50;73.70;;;;;;4966726;28;20053;-76
2023/09/13 05:39:36;;;;;;;0.30;0.20;;;23.50;73.60;;;;;;4960045;28;20130;-76
2023/09/13 05:42:03;;;;;;;2.20;0.30;;;23.50;73.50;;;;;;4964791;28;20043;-76
2023/09/13 05:44:30;;;;;;;1.55;0.28;;;23.50;73.60;;;;;;4964378;28;20528;-76
2023/09/13 05:46:56;;;;;;;0.30;0.30;;;23.50;73.60;;;;;;4967413;28;20077;-76
2023/09/13 05:49:22;;;;;;;0.22;0.22;;;23.50;73.30;;;;;;4966648;28;20071;-76
2023/09/13 05:51:47;;;;;;;0.40;0.40;;;23.40;73.20;;;;;;4967079;28;20045;-76
2023/09/13 05:54:13;;;;;;;0.30;0.30;;;23.40;73.30;;;;;;4964370;28;20070;-76
2023/09/13 05:56:40;;;;;;;0.32;0.10;;;23.40;73.40;;;;;;4965933;28;20065;-76
2023/09/13 05:59:05;;;;;;;0.57;0.30;;;23.50;73.20;;;;;;4963804;28;20066;-76
2023/09/13 06:01:31;;;;;;;0.20;0.20;;;23.40;73.20;;;;;;4968487;28;20525;-76
2023/09/13 06:03:56;;;;;;;0.63;0.50;;;23.40;73.30;;;;;;4968166;28;20022;-76
2023/09/13 06:06:22;;;;;;;0.47;0.25;;;23.40;73.20;;;;;;4624046;28;10001319;-75
2023/09/13 06:08:48;;;;;;;1.00;0.63;;;23.50;73.20;;;;;;4964101;28;20329;-76
2023/09/13 06:11:15;;;;;;;2.13;0.70;;;23.30;69.10;;;;;;4960262;28;20051;-75
2023/09/13 06:13:40;;;;;;;4.32;1.23;;;22.90;63.10;;;;;;4964468;28;20039;-74
2023/09/13 06:16:06;;;;;;;2.17;1.00;;;21.60;64.70;;;;;;4961748;28;20049;-74
2023/09/13 06:18:32;;;;;;;2.00;1.27;;;20.40;67.30;;;;;;4964127;28;20051;-74
2023/09/13 06:20:57;;;;;;;2.53;0.90;;;19.60;70.30;;;;;;4971166;28;20070;-74
2023/09/13 06:23:36;;;;;;;3.03;1.10;;;19.20;71.90;;;;;;4960118;28;20055;-74
2023/09/13 06:26:02;;;;;;;1.20;1.10;;;19.10;72.30;;;;;;4948063;28;20072;-74
2023/09/13 06:28:28;;;;;;;3.05;1.67;;;19.10;72.40;;;;;;4962512;28;20062;-74
2023/09/13 06:30:53;;;;;;;2.08;1.13;;;18.90;73.50;;;;;;4960331;28;20181;-74
2023/09/13 06:33:19;;;;;;;2.25;1.30;;;18.80;73.80;;;;;;4963089;28;20046;-74
2023/09/13 06:35:44;;;;;;;6.00;1.23;;;18.80;74.20;;;;;;4959772;28;20054;-74
2023/09/13 06:38:11;;;;;;;3.28;1.17;;;18.90;73.70;;;;;;4965668;28;20560;-74
2023/09/13 06:40:39;;;;;;;3.30;1.40;;;18.70;74.30;;;;;;4963307;28;20060;-74
2023/09/13 06:43:04;;;;;;;3.00;1.40;;;18.60;75.80;;;;;;4962260;28;20043;-74
2023/09/13 06:45:30;;;;;;;4.43;1.55;;;18.80;74.80;;;;;;4963045;28;20077;-74
2023/09/13 06:47:55;;;;;;;4.10;1.27;;;18.60;75.00;;;;;;4960818;28;20054;-73
2023/09/13 06:50:21;;;;;;;3.22;1.40;;;18.60;75.70;;;;;;4962774;28;20575;-75
2023/09/13 06:52:46;;;;;;;1.92;1.40;;;18.50;76.20;;;;;;4963172;28;20035;-75
2023/09/13 06:55:12;;;;;;;3.38;1.33;;;18.70;75.80;;;;;;4966913;28;20497;-77
2023/09/13 06:57:38;;;;;;;4.40;1.48;;;18.80;74.90;;;;;;4962799;28;20062;-74
2023/09/13 07:00:08;;;;;;;3.10;1.40;;;18.90;74.90;;;;;;4965296;28;20562;-75
2023/09/13 07:02:33;;;;;;;3.72;1.30;;;18.90;75.00;;;;;;4964132;28;20051;-75
2023/09/13 07:04:59;;;;;;;4.65;1.52;;;19.10;74.60;;;;;;4964580;28;20518;-75
2023/09/13 07:07:25;;;;;;;3.10;1.27;;;19.10;74.80;;;;;;4962907;28;20471;-74
2023/09/13 07:09:51;;;;;;;5.75;1.50;;;19.00;75.20;;;;;;4960643;28;20045;-74
2023/09/13 07:12:16;;;;;;;3.55;1.60;;;19.00;75.30;;;;;;4964357;28;20400;-74
2023/09/13 07:14:42;;;;;;;3.40;1.08;;;19.10;75.10;;;;;;4966124;28;20051;-73
2023/09/13 07:17:08;;;;;;;4.55;1.20;;;19.20;74.90;;;;;;4964237;28;20035;-73
2023/09/13 07:19:33;;;;;;;4.05;1.33;;;19.50;74.00;;;;;;4965497;28;20048;-75
2023/09/13 07:21:59;;;;;;;2.58;1.33;;;19.80;73.10;;;;;;4965194;28;20074;-75
2023/09/13 07:24:25;;;;;;;2.47;0.75;;;20.00;72.40;;;;;;4967084;28;20452;-75
2023/09/13 07:26:50;;;;;;;1.60;1.00;;;20.10;71.90;;;;;;4967743;28;20054;-76
2023/09/13 07:29:18;;;;;;;2.50;1.27;;;20.10;72.10;;;;;;4965988;28;20536;-76
2023/09/13 07:31:43;;;;;;;2.65;1.10;;;20.20;72.00;;;;;;4965740;28;20081;-76
2023/09/13 07:34:09;;;;;;;1.33;0.82;;;20.20;71.80;;;;;;4963362;28;20050;-76
2023/09/13 07:36:34;;;;;;;3.35;1.38;;;20.10;71.90;;;;;;4965807;28;20141;-76
2023/09/13 07:39:03;;;;;;;2.80;1.17;;;20.20;72.80;;;;;;4964298;28;20038;-76
2023/09/13 07:41:28;;;;;;;3.13;1.00;;;20.20;71.80;;;;;;4963799;28;20501;-76
2023/09/13 07:43:54;;;;;;;2.03;0.90;;;20.20;71.60;;;;;;4960961;28;20043;-76
2023/09/13 07:46:21;;;;;;;1.73;1.23;;;20.20;71.90;;;;;;4954606;28;20531;-76
2023/09/13 07:48:46;;;;;;;1.42;1.10;;;20.30;71.80;;;;;;4963837;28;20685;-76
2023/09/13 07:51:12;;;;;;;2.70;1.30;;;20.40;71.70;;;;;;4962387;28;20081;-76
2023/09/13 07:53:37;;;;;;;2.22;1.50;;;20.40;71.90;;;;;;4965378;28;20525;-76
2023/09/13 07:56:03;;;;;;;2.03;1.13;;;20.30;72.10;;;;;;4963173;28;20536;-76
2023/09/13 07:58:28;;;;;;;1.90;1.02;;;20.20;72.50;;;;;;4964252;28;20051;-76
2023/09/13 08:00:55;;;;;;;2.67;1.20;;;20.30;72.50;;;;;;4964288;28;20051;-76
2023/09/13 08:03:20;;;;;;;1.55;1.20;;;20.40;72.50;;;;;;4965461;28;20046;-76
2023/09/13 08:05:47;;;;;;;2.08;1.40;;;20.40;72.80;;;;;;4969586;28;20772;-76
2023/09/13 08:08:15;;;;;;;6.60;1.70;;;20.40;72.60;;;;;;4966063;28;20076;-76
2023/09/13 08:10:41;;;;;;;2.50;1.25;;;20.40;72.90;;;;;;4965498;28;20046;-76
2023/09/13 08:13:07;;;;;;;2.25;1.15;;;20.50;73.00;;;;;;4955462;28;20050;-75
2023/09/13 08:15:33;;;;;;;3.00;1.17;;;20.50;72.80;;;;;;4964036;28;20429;-74
2023/09/13 08:17:58;;;;;;;2.22;1.10;;;20.50;73.20;;;;;;4963997;28;20039;-74
2023/09/13 08:20:24;;;;;;;1.08;0.80;;;20.60;73.00;;;;;;4964839;28;20054;-75
2023/09/13 08:22:49;;;;;;;2.38;0.90;;;20.70;72.60;;;;;;4965340;28;20039;-74
2023/09/13 08:25:15;;;;;;;3.05;0.85;;;20.80;72.30;;;;;;4964851;28;20625;-75
2023/09/13 08:27:40;;;;;;;3.97;1.27;;;20.70;72.80;;;;;;4966288;28;20047;-75
2023/09/13 08:30:08;;;;;;;2.78;1.17;;;20.80;72.80;;;;;;4965489;28;20371;-74
2023/09/13 08:32:34;;;;;;;1.65;1.08;;;20.90;72.80;;;;;;4965785;28;20432;-74
2023/09/13 08:34:59;;;;;;;1.70;1.20;;;20.90;72.70;;;;;;4970883;28;20038;-74
2023/09/13 08:37:25;;;;;;;2.53;1.00;;;20.90;72.70;;;;;;4967324;28;20047;-74
2023/09/13 08:39:51;;;;;;;3.17;1.20;;;20.80;73.20;;;;;;4969580;28;20509;-74
2023/09/13 08:42:17;;;;;;;1.08;0.70;;;21.00;74.00;;;;;;4964800;28;20549;-74
2023/09/13 08:44:43;;;;;;;4.28;1.10;;;21.00;73.10;;;;;;4970600;28;20038;-74
2023/09/13 08:47:10;;;;;;;3.22;1.10;;;21.10;73.20;;;;;;4970530;28;20097;-74
2023/09/13 08:49:36;;;;;;;1.65;0.73;;;21.10;73.30;;;;;;4967823;28;20041;-75
2023/09/13 08:52:01;;;;;;;1.13;0.90;;;21.00;73.50;;;;;;4968153;28;20046;-74
2023/09/13 08:54:27;;;;;;;3.30;1.10;;;21.10;73.70;;;;;;4966084;28;20130;-74
2023/09/13 08:56:53;;;;;;;4.93;1.25;;;21.20;73.90;;;;;;4963309;28;20047;-74
2023/09/13 08:59:19;;;;;;;1.13;1.00;;;21.30;73.60;;;;;;4968903;28;20039;-75
2023/09/13 09:01:49;;;;;;;1.52;0.93;;;21.20;74.00;;;;;;4967768;28;20051;-74
2023/09/13 09:04:18;;;;;;;1.45;0.93;;;21.30;74.90;;;;;;4966052;28;20039;-74
2023/09/13 09:06:44;;;;;;;1.13;1.02;;;21.40;74.80;;;;;;4968761;28;20042;-74
2023/09/13 09:09:10;;;;;;;1.67;1.00;;;21.40;74.40;;;;;;4966672;28;20513;-74
2023/09/13 09:11:36;;;;;;;1.23;0.93;;;21.40;74.60;;;;;;4969298;28;20067;-75
2023/09/13 09:14:02;;;;;;;2.10;1.13;;;21.40;75.40;;;;;;4965456;28;20048;-74
2023/09/13 09:16:28;;;;;;;1.55;1.15;;;21.40;74.90;;;;;;4965157;28;20078;-74
2023/09/13 09:18:54;;;;;;;2.88;1.00;;;21.60;74.50;;;;;;4963564;28;20061;-75
2023/09/13 09:21:20;;;;;;;1.05;0.90;;;21.60;74.80;;;;;;4967047;28;20442;-75
2023/09/13 09:23:45;;;;;;;1.88;1.23;;;21.50;75.10;;;;;;4967413;28;20046;-74
2023/09/13 09:26:11;;;;;;;1.23;0.90;;;21.50;75.00;;;;;;4969689;28;20061;-75
2023/09/13 09:28:37;;;;;;;1.35;0.75;;;21.60;75.00;;;;;;4967465;28;20057;-74
2023/09/13 09:31:02;;;;;;;2.00;1.17;;;21.60;75.10;;;;;;4968727;28;20061;-75
2023/09/13 09:33:29;;;;;;;2.55;0.90;;;21.60;75.20;;;;;;4967100;28;20043;-75
2023/09/13 09:35:59;;;;;;;2.08;1.00;;;21.60;75.30;;;;;;4965294;28;20050;-75
2023/09/13 09:38:27;;;;;;;0.85;0.80;;;21.60;75.60;;;;;;4961541;28;20043;-74
2023/09/13 09:40:55;;;;;;;2.08;1.20;;;21.60;75.40;;;;;;4963492;28;20059;-74
2023/09/13 09:43:21;;;;;;;1.38;0.90;;;21.50;75.40;;;;;;4961849;28;20046;-74
2023/09/13 09:45:47;;;;;;;1.00;0.90;;;21.50;75.30;;;;;;4966414;28;20047;-74
2023/09/13 09:48:13;;;;;;;1.15;0.73;;;21.60;75.00;;;;;;4965544;28;20116;-75
2023/09/13 09:50:43;;;;;;;2.65;0.98;;;21.60;75.20;;;;;;4965141;28;21800;-75
2023/09/13 09:53:09;;;;;;;0.90;0.80;;;21.60;75.10;;;;;;4966414;28;20501;-75
2023/09/13 09:55:38;;;;;;;1.73;0.80;;;21.60;75.00;;;;;;4963082;28;20126;-75
2023/09/13 09:58:04;;;;;;;1.38;0.60;;;21.70;74.80;;;;;;4966141;28;20078;-75
2023/09/13 10:00:29;;;;;;;2.28;1.13;;;21.80;74.70;;;;;;4966136;28;20468;-75
2023/09/13 10:02:55;;;;;;;1.00;0.70;;;21.80;74.40;;;;;;4964606;28;20122;-76
2023/09/13 10:05:21;;;;;;;0.98;0.70;;;21.80;74.20;;;;;;4965178;28;20081;-75
2023/09/13 10:07:56;;;;;;;0.85;0.57;;;21.90;74.10;;;;;;4963215;28;20785;-76
2023/09/13 10:10:29;;;;;;;0.85;0.60;;;22.00;73.90;;;;;;4966552;28;20424;-75
2023/09/13 10:12:54;;;;;;;1.77;1.15;;;22.00;74.00;;;;;;4964726;28;20046;-75
2023/09/13 10:15:20;;;;;;;2.55;0.70;;;22.00;73.80;;;;;;4965139;28;21061;-75
2023/09/13 10:17:46;;;;;;;1.40;0.75;;;22.00;74.20;;;;;;4968471;28;20531;-75
2023/09/13 10:20:11;;;;;;;2.38;0.80;;;22.00;74.20;;;;;;4966977;28;20200;-75
2023/09/13 10:22:38;;;;;;;1.63;0.90;;;22.00;74.40;;;;;;4965933;28;20096;-75
2023/09/13 10:25:04;;;;;;;1.10;1.00;;;22.00;74.10;;;;;;4966271;28;20445;-75
2023/09/13 10:27:29;;;;;;;0.88;0.77;;;22.10;74.10;;;;;;4964294;28;20035;-75
2023/09/13 10:29:59;;;;;;;0.73;0.70;;;22.10;73.80;;;;;;4967604;28;20085;-75
2023/09/13 10:32:28;;;;;;;1.55;0.80;;;22.20;73.80;;;;;;4965394;28;20078;-75
2023/09/13 10:34:55;;;;;;;0.93;0.60;;;22.20;73.60;;;;;;4969101;28;20043;-75
2023/09/13 10:37:50;;;;;;;1.40;0.70;;;22.20;73.50;;;;;;4962449;28;20058;-75
2023/09/13 10:40:38;;;;;;;1.67;0.80;;;22.20;73.70;;;;;;4981464;28;20062;-76
2023/09/13 10:43:04;;;;;;;4.22;0.85;;;22.30;73.50;;;;;;4626947;28;10000280;-75
2023/09/13 10:45:30;;;;;;;0.98;0.70;;;22.30;73.80;;;;;;4962730;28;20035;-75
2023/09/13 10:47:57;;;;;;;0.77;0.70;;;22.30;74.00;;;;;;4969457;28;20117;-75
2023/09/13 10:50:23;;;;;;;0.70;0.70;;;22.30;73.70;;;;;;4957156;28;20054;-74
2023/09/13 10:52:49;;;;;;;1.15;0.80;;;22.40;73.50;;;;;;4956410;28;20388;-75
2023/09/13 10:55:18;;;;;;;3.00;1.00;;;22.30;73.00;;;;;;4960697;28;20509;-75
2023/09/13 10:57:43;;;;;;;1.52;0.90;;;22.40;72.00;;;;;;4958312;28;20182;-75
2023/09/13 11:00:12;;;;;;;3.10;0.80;;;22.50;72.30;;;;;;4962121;28;20416;-75
2023/09/13 11:02:42;;;;;;;1.17;0.90;;;22.40;72.00;;;;;;4963653;28;20046;-74
2023/09/13 11:05:08;;;;;;;1.30;0.90;;;22.40;71.80;;;;;;4966169;28;20614;-74
2023/09/13 11:07:41;;;;;;;1.27;1.10;;;22.40;71.70;;;;;;4962145;28;20100;-74
2023/09/13 11:10:12;;;;;;;0.60;0.60;;;22.40;71.90;;;;;;4963190;28;20050;-74
2023/09/13 11:12:38;;;;;;;1.10;0.88;;;22.40;71.50;;;;;;4962051;28;20059;-74
2023/09/13 11:15:14;;;;;;;1.20;0.95;;;22.40;71.90;;;;;;4963860;28;20826;-74
2023/09/13 11:17:40;;;;;;;1.42;1.08;;;22.40;71.30;;;;;;4963712;28;20153;-74
2023/09/13 11:20:24;;;;;;;0.90;0.50;;;22.50;71.30;;;;;;4962167;28;20148;-74
2023/09/13 11:23:01;;;;;;;0.82;0.70;;;22.60;71.20;;;;;;4964297;28;20042;-74
2023/09/13 11:25:48;;;;;;;0.95;0.70;;;22.60;70.60;;;;;;4959236;28;20619;-75
2023/09/13 11:28:29;;;;;;;0.82;0.75;;;22.60;70.00;;;;;;4960169;28;20046;-75
2023/09/13 11:30:59;;;;;;;0.60;0.60;;;22.60;69.70;;;;;;4960847;28;20548;-74
2023/09/13 11:33:31;;;;;;;0.93;0.70;;;22.60;70.00;;;;;;4960260;28;20133;-74
2023/09/13 11:35:58;;;;;;;0.70;0.70;;;22.60;69.80;;;;;;4960534;28;20524;-74
2023/09/13 11:38:24;;;;;;;0.98;0.50;;;22.60;70.00;;;;;;4961861;28;20043;-74
2023/09/13 11:40:50;;;;;;;0.60;0.60;;;22.60;70.70;;;;;;4963187;28;20099;-74
2023/09/13 11:43:22;;;;;;;1.17;0.52;;;22.60;69.80;;;;;;4961868;28;20049;-74
2023/09/13 11:45:49;;;;;;;0.60;0.60;;;22.60;70.00;;;;;;4945620;28;20121;-74
2023/09/13 11:48:40;;;;;;;0.63;0.57;;;22.70;69.70;;;;;;4959554;28;20078;-74
2023/09/13 11:51:13;;;;;;;0.70;0.65;;;22.70;69.70;;;;;;4960685;28;20085;-74
2023/09/13 11:53:39;;;;;;;0.50;0.50;;;22.70;69.50;;;;;;4960216;28;20078;-74
2023/09/13 11:56:05;;;;;;;0.55;0.55;;;22.70;69.80;;;;;;4958459;28;20294;-75
2023/09/13 11:58:32;;;;;;;0.80;0.50;;;22.70;68.50;;;;;;4959796;28;20113;-74
2023/09/13 12:00:59;;;;;;;0.47;0.47;;;22.70;68.40;;;;;;4960775;28;20055;-74
2023/09/13 12:03:30;;;;;;;0.88;0.63;;;22.80;68.80;;;;;;4956755;28;20512;-75
2023/09/13 12:05:56;;;;;;;2.15;0.65;;;22.80;68.20;;;;;;4958913;28;20066;-75
2023/09/13 12:08:23;;;;;;;0.60;0.60;;;22.80;68.90;;;;;;4962003;28;20145;-76
2023/09/13 12:10:49;;;;;;;2.28;0.80;;;22.80;69.20;;;;;;4976512;28;20429;-76
2023/09/13 12:13:15;;;;;;;0.50;0.50;;;22.90;69.10;;;;;;4956390;28;20074;-76
2023/09/13 12:15:59;;;;;;;0.75;0.50;;;22.90;69.60;;;;;;4962433;28;20093;-76
2023/09/13 12:18:25;;;;;;;0.82;0.70;;;22.90;70.00;;;;;;4956359;28;20455;-76
2023/09/13 12:20:51;;;;;;;1.83;0.57;;;22.90;70.20;;;;;;4960358;28;20105;-75
2023/09/13 12:23:16;;;;;;;0.70;0.60;;;22.90;70.20;;;;;;4957983;28;20586;-76
2023/09/13 12:25:42;;;;;;;0.70;0.60;;;22.90;70.20;;;;;;4953700;28;20035;-76
2023/09/13 12:28:08;;;;;;;0.63;0.60;;;22.90;70.80;;;;;;4955196;28;20129;-76
2023/09/13 12:30:33;;;;;;;0.77;0.60;;;22.90;70.10;;;;;;4950635;28;20166;-76
2023/09/13 12:32:59;;;;;;;0.60;0.60;;;22.90;70.30;;;;;;4960658;28;20074;-76
2023/09/13 12:35:25;;;;;;;0.63;0.60;;;22.90;70.50;;;;;;4961435;28;20039;-76
2023/09/13 12:38:00;;;;;;;0.50;0.50;;;22.90;70.50;;;;;;4962424;28;20043;-75
2023/09/13 12:40:28;;;;;;;1.35;0.70;;;22.90;71.00;;;;;;4961429;28;20121;-75
2023/09/13 12:42:57;;;;;;;0.70;0.50;;;22.90;70.70;;;;;;4966562;28;20051;-75
2023/09/13 12:45:23;;;;;;;0.63;0.47;;;23.00;71.10;;;;;;4965861;28;20043;-75